sensor_id;sensor_type;location;lat;lon;timestamp;temperature;humidity
13898;DHT22;7019;50.766;4.474;2023-04-09T00:00:15;4.30;99.90
13898;DHT22;7019;50.766;4.474;2023-04-09T00:02:42;4.30;99.90
13898;DHT22;7019;50.766;4.474;2023-04-09T00:05:10;4.30;99.90
13898;DHT22;7019;50.766;4.474;2023-04-09T00:07:37;4.20;99.90
13898;DHT22;7019;50.766;4.474;2023-04-09T00:10:05;4.20;99.90
13898;DHT22;7019;50.766;4.474;2023-04-09T00:12:33;4.20;99.90
13898;DHT22;7019;50.766;4.474;2023-04-09T00:15:01;4.20;99.90
13898;DHT22;7019;50.766;4.474;2023-04-09T00:17:30;4.20;99.90
13898;DHT22;7019;50.766;4.474;2023-04-09T00:19:57;4.20;99.90
13898;DHT22;7019;50.766;4.474;2023-04-09T00:22:24;4.20;99.90
13898;DHT22;7019;50.766;4.474;2023-04-09T00:24:51;4.10;99.90
13898;DHT22;7019;50.766;4.474;2023-04-09T00:27:18;4.10;99.90
13898;DHT22;7019;50.766;4.474;2023-04-09T00:29:45;4.20;99.90
13898;DHT22;7019;50.766;4.474;2023-04-09T00:32:13;4.10;99.90
13898;DHT22;7019;50.766;4.474;2023-04-09T00:34:41;4.10;99.90
13898;DHT22;7019;50.766;4.474;2023-04-09T00:37:08;4.10;99.90
13898;DHT22;7019;50.766;4.474;2023-04-09T00:39:35;4.20;99.90
13898;DHT22;7019;50.766;4.474;2023-04-09T00:42:02;4.00;99.90
13898;DHT22;7019;50.766;4.474;2023-04-09T00:44:30;3.90;99.90
13898;DHT22;7019;50.766;4.474;2023-04-09T00:46:58;3.80;99.90
13898;DHT22;7019;50.766;4.474;2023-04-09T00:49:26;3.80;99.90
13898;DHT22;7019;50.766;4.474;2023-04-09T00:51:53;3.80;99.90
13898;DHT22;7019;50.766;4.474;2023-04-09T00:54:21;3.80;99.90
13898;DHT22;7019;50.766;4.474;2023-04-09T00:56:48;3.80;99.90
13898;DHT22;7019;50.766;4.474;2023-04-09T00:59:15;3.80;99.90
13898;DHT22;7019;50.766;4.474;2023-04-09T01:01:42;3.80;99.90
13898;DHT22;7019;50.766;4.474;2023-04-09T01:04:09;3.80;99.90
13898;DHT22;7019;50.766;4.474;2023-04-09T01:06:44;3.80;99.90
13898;DHT22;7019;50.766;4.474;2023-04-09T01:09:20;3.90;99.90
13898;DHT22;7019;50.766;4.474;2023-04-09T01:11:57;3.80;99.90
13898;DHT22;7019;50.766;4.474;2023-04-09T01:14:33;3.80;99.90
13898;DHT22;7019;50.766;4.474;2023-04-09T01:17:04;3.80;99.90
13898;DHT22;7019;50.766;4.474;2023-04-09T01:19:42;3.80;99.90
13898;DHT22;7019;50.766;4.474;2023-04-09T01:22:22;3.70;99.90
13898;DHT22;7019;50.766;4.474;2023-04-09T01:25:01;3.60;99.90
13898;DHT22;7019;50.766;4.474;2023-04-09T01:27:36;3.60;99.90
13898;DHT22;7019;50.766;4.474;2023-04-09T01:30:08;3.60;99.90
13898;DHT22;7019;50.766;4.474;2023-04-09T01:32:36;3.60;99.90
13898;DHT22;7019;50.766;4.474;2023-04-09T01:35:06;3.60;99.90
13898;DHT22;7019;50.766;4.474;2023-04-09T01:37:34;3.60;99.90
13898;DHT22;7019;50.766;4.474;2023-04-09T01:40:03;3.60;99.90
13898;DHT22;7019;50.766;4.474;2023-04-09T01:42:30;3.60;99.90
13898;DHT22;7019;50.766;4.474;2023-04-09T01:44:59;3.60;99.90
13898;DHT22;7019;50.766;4.474;2023-04-09T01:47:29;3.60;99.90
13898;DHT22;7019;50.766;4.474;2023-04-09T01:49:57;3.60;99.90
13898;DHT22;7019;50.766;4.474;2023-04-09T01:52:25;3.70;99.90
13898;DHT22;7019;50.766;4.474;2023-04-09T01:54:52;3.70;99.90
13898;DHT22;7019;50.766;4.474;2023-04-09T01:57:19;3.60;99.90
13898;DHT22;7019;50.766;4.474;2023-04-09T01:59:46;3.60;99.90
13898;DHT22;7019;50.766;4.474;2023-04-09T02:02:17;3.60;99.90
13898;DHT22;7019;50.766;4.474;2023-04-09T02:04:47;3.50;99.90
13898;DHT22;7019;50.766;4.474;2023-04-09T02:07:21;3.50;99.90
13898;DHT22;7019;50.766;4.474;2023-04-09T02:09:50;3.50;99.90
13898;DHT22;7019;50.766;4.474;2023-04-09T02:12:19;3.50;99.90
13898;DHT22;7019;50.766;4.474;2023-04-09T02:14:50;3.50;99.90
13898;DHT22;7019;50.766;4.474;2023-04-09T02:17:17;3.50;99.90
13898;DHT22;7019;50.766;4.474;2023-04-09T02:19:46;3.50;99.90
13898;DHT22;7019;50.766;4.474;2023-04-09T02:22:15;3.50;99.90
13898;DHT22;7019;50.766;4.474;2023-04-09T02:24:42;3.40;99.90
13898;DHT22;7019;50.766;4.474;2023-04-09T02:27:09;3.40;99.90
13898;DHT22;7019;50.766;4.474;2023-04-09T02:29:37;3.40;99.90
13898;DHT22;7019;50.766;4.474;2023-04-09T02:32:04;3.40;99.90
13898;DHT22;7019;50.766;4.474;2023-04-09T02:34:32;3.30;99.90
13898;DHT22;7019;50.766;4.474;2023-04-09T02:37:00;3.30;99.90
13898;DHT22;7019;50.766;4.474;2023-04-09T02:39:27;3.30;99.90
13898;DHT22;7019;50.766;4.474;2023-04-09T02:41:54;3.30;99.90
13898;DHT22;7019;50.766;4.474;2023-04-09T02:44:22;3.30;99.90
13898;DHT22;7019;50.766;4.474;2023-04-09T02:46:50;3.30;99.90
13898;DHT22;7019;50.766;4.474;2023-04-09T02:49:17;3.30;99.90
13898;DHT22;7019;50.766;4.474;2023-04-09T02:51:44;3.30;99.90
13898;DHT22;7019;50.766;4.474;2023-04-09T02:54:13;3.30;99.90
13898;DHT22;7019;50.766;4.474;2023-04-09T02:56:40;3.10;99.90
13898;DHT22;7019;50.766;4.474;2023-04-09T02:59:07;3.10;99.90
13898;DHT22;7019;50.766;4.474;2023-04-09T03:01:34;3.10;99.90
13898;DHT22;7019;50.766;4.474;2023-04-09T03:04:01;3.10;99.90
13898;DHT22;7019;50.766;4.474;2023-04-09T03:06:28;3.10;99.90
13898;DHT22;7019;50.766;4.474;2023-04-09T03:08:55;3.10;99.90
13898;DHT22;7019;50.766;4.474;2023-04-09T03:11:24;3.10;99.90
13898;DHT22;7019;50.766;4.474;2023-04-09T03:13:51;3.10;99.90
13898;DHT22;7019;50.766;4.474;2023-04-09T03:16:18;3.10;99.90
13898;DHT22;7019;50.766;4.474;2023-04-09T03:18:45;3.10;99.90
13898;DHT22;7019;50.766;4.474;2023-04-09T03:21:12;3.10;99.90
13898;DHT22;7019;50.766;4.474;2023-04-09T03:23:39;3.10;99.90
13898;DHT22;7019;50.766;4.474;2023-04-09T03:26:06;3.10;99.90
13898;DHT22;7019;50.766;4.474;2023-04-09T03:28:34;3.10;99.90
13898;DHT22;7019;50.766;4.474;2023-04-09T03:31:01;3.00;99.90
13898;DHT22;7019;50.766;4.474;2023-04-09T03:33:28;3.10;99.90
13898;DHT22;7019;50.766;4.474;2023-04-09T03:35:55;3.00;99.90
13898;DHT22;7019;50.766;4.474;2023-04-09T03:38:22;3.00;99.90
13898;DHT22;7019;50.766;4.474;2023-04-09T03:40:50;3.00;99.90
13898;DHT22;7019;50.766;4.474;2023-04-09T03:43:17;3.00;99.90
13898;DHT22;7019;50.766;4.474;2023-04-09T03:45:45;3.00;99.90
13898;DHT22;7019;50.766;4.474;2023-04-09T03:48:12;3.00;99.90
13898;DHT22;7019;50.766;4.474;2023-04-09T03:50:40;2.90;99.90
13898;DHT22;7019;50.766;4.474;2023-04-09T03:53:07;2.90;99.90
13898;DHT22;7019;50.766;4.474;2023-04-09T03:55:34;3.00;99.90
13898;DHT22;7019;50.766;4.474;2023-04-09T03:58:03;2.90;99.90
13898;DHT22;7019;50.766;4.474;2023-04-09T04:00:30;2.90;99.90
13898;DHT22;7019;50.766;4.474;2023-04-09T04:02:58;2.90;99.90
13898;DHT22;7019;50.766;4.474;2023-04-09T04:05:25;2.90;99.90
13898;DHT22;7019;50.766;4.474;2023-04-09T04:07:52;2.90;99.90
13898;DHT22;7019;50.766;4.474;2023-04-09T04:10:19;2.90;99.90
13898;DHT22;7019;50.766;4.474;2023-04-09T04:12:47;2.90;99.90
13898;DHT22;7019;50.766;4.474;2023-04-09T04:15:14;2.80;99.90
13898;DHT22;7019;50.766;4.474;2023-04-09T04:17:41;2.90;99.90
13898;DHT22;7019;50.766;4.474;2023-04-09T04:20:10;2.80;99.90
13898;DHT22;7019;50.766;4.474;2023-04-09T04:22:37;2.70;99.90
13898;DHT22;7019;50.766;4.474;2023-04-09T04:25:05;2.60;99.90
13898;DHT22;7019;50.766;4.474;2023-04-09T04:27:32;2.50;99.90
13898;DHT22;7019;50.766;4.474;2023-04-09T04:29:59;2.50;99.90
13898;DHT22;7019;50.766;4.474;2023-04-09T04:32:26;2.50;99.90
13898;DHT22;7019;50.766;4.474;2023-04-09T04:34:54;2.50;99.90
13898;DHT22;7019;50.766;4.474;2023-04-09T04:37:22;2.60;99.90
13898;DHT22;7019;50.766;4.474;2023-04-09T04:39:49;2.60;99.90
13898;DHT22;7019;50.766;4.474;2023-04-09T04:42:16;2.60;99.90
13898;DHT22;7019;50.766;4.474;2023-04-09T04:44:43;2.60;99.90
13898;DHT22;7019;50.766;4.474;2023-04-09T04:47:11;2.60;99.90
13898;DHT22;7019;50.766;4.474;2023-04-09T04:49:38;2.60;99.90
13898;DHT22;7019;50.766;4.474;2023-04-09T04:52:05;2.60;99.90
13898;DHT22;7019;50.766;4.474;2023-04-09T04:54:34;2.70;99.90
13898;DHT22;7019;50.766;4.474;2023-04-09T04:57:01;2.70;99.90
13898;DHT22;7019;50.766;4.474;2023-04-09T04:59:28;2.70;99.90
13898;DHT22;7019;50.766;4.474;2023-04-09T05:01:55;2.60;99.90
13898;DHT22;7019;50.766;4.474;2023-04-09T05:04:22;2.60;99.90
13898;DHT22;7019;50.766;4.474;2023-04-09T05:06:49;2.60;99.90
13898;DHT22;7019;50.766;4.474;2023-04-09T05:09:16;2.60;99.90
13898;DHT22;7019;50.766;4.474;2023-04-09T05:11:44;2.60;99.90
13898;DHT22;7019;50.766;4.474;2023-04-09T05:14:11;2.60;99.90
13898;DHT22;7019;50.766;4.474;2023-04-09T05:16:39;2.70;99.90
13898;DHT22;7019;50.766;4.474;2023-04-09T05:19:06;2.70;99.90
13898;DHT22;7019;50.766;4.474;2023-04-09T05:21:33;2.70;99.90
13898;DHT22;7019;50.766;4.474;2023-04-09T05:24:00;2.80;99.90
13898;DHT22;7019;50.766;4.474;2023-04-09T05:26:28;2.80;99.90
13898;DHT22;7019;50.766;4.474;2023-04-09T05:28:56;2.80;99.90
13898;DHT22;7019;50.766;4.474;2023-04-09T05:31:23;2.90;99.90
13898;DHT22;7019;50.766;4.474;2023-04-09T05:33:50;2.90;99.90
13898;DHT22;7019;50.766;4.474;2023-04-09T05:36:18;3.00;99.90
13898;DHT22;7019;50.766;4.474;2023-04-09T05:38:46;3.00;99.90
13898;DHT22;7019;50.766;4.474;2023-04-09T05:41:13;3.10;99.90
13898;DHT22;7019;50.766;4.474;2023-04-09T05:43:40;3.10;99.90
13898;DHT22;7019;50.766;4.474;2023-04-09T05:46:09;3.20;99.90
13898;DHT22;7019;50.766;4.474;2023-04-09T05:48:37;3.30;99.90
13898;DHT22;7019;50.766;4.474;2023-04-09T05:51:04;3.40;99.90
13898;DHT22;7019;50.766;4.474;2023-04-09T05:53:31;3.50;99.90
13898;DHT22;7019;50.766;4.474;2023-04-09T05:55:58;3.50;99.90
13898;DHT22;7019;50.766;4.474;2023-04-09T05:58:27;3.60;99.90
13898;DHT22;7019;50.766;4.474;2023-04-09T06:00:54;3.50;99.90
13898;DHT22;7019;50.766;4.474;2023-04-09T06:03:22;3.50;99.90
13898;DHT22;7019;50.766;4.474;2023-04-09T06:05:49;3.50;99.90
13898;DHT22;7019;50.766;4.474;2023-04-09T06:08:16;3.60;99.90
13898;DHT22;7019;50.766;4.474;2023-04-09T06:10:44;3.80;99.90
13898;DHT22;7019;50.766;4.474;2023-04-09T06:13:11;4.00;99.90
13898;DHT22;7019;50.766;4.474;2023-04-09T06:15:38;4.10;99.90
13898;DHT22;7019;50.766;4.474;2023-04-09T06:18:05;4.30;99.90
13898;DHT22;7019;50.766;4.474;2023-04-09T06:20:34;4.40;99.90
13898;DHT22;7019;50.766;4.474;2023-04-09T06:23:01;4.60;99.90
13898;DHT22;7019;50.766;4.474;2023-04-09T06:25:28;4.70;99.90
13898;DHT22;7019;50.766;4.474;2023-04-09T06:27:55;4.80;99.90
13898;DHT22;7019;50.766;4.474;2023-04-09T06:30:22;4.90;99.90
13898;DHT22;7019;50.766;4.474;2023-04-09T06:32:49;5.00;99.90
13898;DHT22;7019;50.766;4.474;2023-04-09T06:35:17;5.00;99.90
13898;DHT22;7019;50.766;4.474;2023-04-09T06:37:45;5.00;99.90
13898;DHT22;7019;50.766;4.474;2023-04-09T06:40:13;5.40;99.90
13898;DHT22;7019;50.766;4.474;2023-04-09T06:42:40;5.80;99.90
13898;DHT22;7019;50.766;4.474;2023-04-09T06:45:08;6.30;99.90
13898;DHT22;7019;50.766;4.474;2023-04-09T06:47:35;6.70;99.90
13898;DHT22;7019;50.766;4.474;2023-04-09T06:50:03;7.00;99.90
13898;DHT22;7019;50.766;4.474;2023-04-09T06:52:30;7.20;99.90
13898;DHT22;7019;50.766;4.474;2023-04-09T06:54:58;7.40;99.90
13898;DHT22;7019;50.766;4.474;2023-04-09T06:57:25;7.70;99.90
13898;DHT22;7019;50.766;4.474;2023-04-09T06:59:52;8.10;99.90
13898;DHT22;7019;50.766;4.474;2023-04-09T07:02:20;8.50;99.90
13898;DHT22;7019;50.766;4.474;2023-04-09T07:04:47;8.80;99.90
13898;DHT22;7019;50.766;4.474;2023-04-09T07:07:14;9.30;99.90
13898;DHT22;7019;50.766;4.474;2023-04-09T07:09:41;9.90;99.90
13898;DHT22;7019;50.766;4.474;2023-04-09T07:12:10;10.20;99.90
13898;DHT22;7019;50.766;4.474;2023-04-09T07:14:37;10.70;99.90
13898;DHT22;7019;50.766;4.474;2023-04-09T07:17:04;11.20;99.90
13898;DHT22;7019;50.766;4.474;2023-04-09T07:19:31;11.50;99.90
13898;DHT22;7019;50.766;4.474;2023-04-09T07:21:58;11.70;99.90
13898;DHT22;7019;50.766;4.474;2023-04-09T07:24:25;12.00;99.90
13898;DHT22;7019;50.766;4.474;2023-04-09T07:26:52;11.90;99.90
13898;DHT22;7019;50.766;4.474;2023-04-09T07:29:20;11.80;99.90
13898;DHT22;7019;50.766;4.474;2023-04-09T07:31:47;11.80;99.90
13898;DHT22;7019;50.766;4.474;2023-04-09T07:34:14;11.70;99.90
13898;DHT22;7019;50.766;4.474;2023-04-09T07:36:41;11.90;99.90
13898;DHT22;7019;50.766;4.474;2023-04-09T07:39:09;12.70;99.90
13898;DHT22;7019;50.766;4.474;2023-04-09T07:41:35;13.20;99.90
13898;DHT22;7019;50.766;4.474;2023-04-09T07:44:03;13.20;99.90
13898;DHT22;7019;50.766;4.474;2023-04-09T07:46:32;13.00;99.90
13898;DHT22;7019;50.766;4.474;2023-04-09T07:48:59;13.20;99.90
13898;DHT22;7019;50.766;4.474;2023-04-09T07:51:26;13.60;99.90
13898;DHT22;7019;50.766;4.474;2023-04-09T07:53:53;13.50;99.90
13898;DHT22;7019;50.766;4.474;2023-04-09T07:56:20;13.60;99.90
13898;DHT22;7019;50.766;4.474;2023-04-09T07:58:47;13.90;99.90
13898;DHT22;7019;50.766;4.474;2023-04-09T08:01:15;14.10;99.90
13898;DHT22;7019;50.766;4.474;2023-04-09T08:03:44;14.40;99.90
13898;DHT22;7019;50.766;4.474;2023-04-09T08:06:11;15.00;99.90
13898;DHT22;7019;50.766;4.474;2023-04-09T08:08:38;15.00;99.90
13898;DHT22;7019;50.766;4.474;2023-04-09T08:11:05;15.10;99.90
13898;DHT22;7019;50.766;4.474;2023-04-09T08:13:32;15.30;99.90
13898;DHT22;7019;50.766;4.474;2023-04-09T08:16:00;15.90;99.90
13898;DHT22;7019;50.766;4.474;2023-04-09T08:18:28;16.20;99.90
13898;DHT22;7019;50.766;4.474;2023-04-09T08:20:57;15.80;99.90
13898;DHT22;7019;50.766;4.474;2023-04-09T08:23:24;16.00;99.90
13898;DHT22;7019;50.766;4.474;2023-04-09T08:25:51;15.80;99.90
13898;DHT22;7019;50.766;4.474;2023-04-09T08:28:18;16.10;99.90
13898;DHT22;7019;50.766;4.474;2023-04-09T08:30:45;16.40;99.90
13898;DHT22;7019;50.766;4.474;2023-04-09T08:33:13;16.10;99.90
13898;DHT22;7019;50.766;4.474;2023-04-09T08:35:40;15.70;99.90
13898;DHT22;7019;50.766;4.474;2023-04-09T08:38:08;15.50;99.90
13898;DHT22;7019;50.766;4.474;2023-04-09T08:40:36;15.80;99.90
13898;DHT22;7019;50.766;4.474;2023-04-09T08:43:04;16.10;99.90
13898;DHT22;7019;50.766;4.474;2023-04-09T08:45:32;16.90;99.90
13898;DHT22;7019;50.766;4.474;2023-04-09T08:48:01;17.40;99.90
13898;DHT22;7019;50.766;4.474;2023-04-09T08:50:31;17.10;99.90
13898;DHT22;7019;50.766;4.474;2023-04-09T08:53:01;17.20;99.90
13898;DHT22;7019;50.766;4.474;2023-04-09T08:55:30;17.10;99.90
13898;DHT22;7019;50.766;4.474;2023-04-09T08:57:59;17.40;99.90
13898;DHT22;7019;50.766;4.474;2023-04-09T09:00:26;18.20;99.90
13898;DHT22;7019;50.766;4.474;2023-04-09T09:03:05;18.10;99.90
13898;DHT22;7019;50.766;4.474;2023-04-09T09:05:36;18.30;99.90
13898;DHT22;7019;50.766;4.474;2023-04-09T09:08:05;18.30;99.90
13898;DHT22;7019;50.766;4.474;2023-04-09T09:10:41;17.60;99.90
13898;DHT22;7019;50.766;4.474;2023-04-09T09:13:19;17.00;99.90
13898;DHT22;7019;50.766;4.474;2023-04-09T09:15:47;17.00;99.90
13898;DHT22;7019;50.766;4.474;2023-04-09T09:18:16;17.30;99.90
13898;DHT22;7019;50.766;4.474;2023-04-09T09:20:44;17.50;99.90
13898;DHT22;7019;50.766;4.474;2023-04-09T09:23:11;18.00;99.90
13898;DHT22;7019;50.766;4.474;2023-04-09T09:25:43;18.60;99.90
13898;DHT22;7019;50.766;4.474;2023-04-09T09:28:11;18.40;99.90
13898;DHT22;7019;50.766;4.474;2023-04-09T09:30:39;18.60;99.90
13898;DHT22;7019;50.766;4.474;2023-04-09T09:33:07;18.70;99.90
13898;DHT22;7019;50.766;4.474;2023-04-09T09:35:48;18.50;99.90
13898;DHT22;7019;50.766;4.474;2023-04-09T09:38:16;18.40;99.90
13898;DHT22;7019;50.766;4.474;2023-04-09T09:40:44;18.40;99.90
13898;DHT22;7019;50.766;4.474;2023-04-09T09:43:12;18.20;99.90
13898;DHT22;7019;50.766;4.474;2023-04-09T09:45:39;18.40;99.90
13898;DHT22;7019;50.766;4.474;2023-04-09T09:48:10;18.40;99.90
13898;DHT22;7019;50.766;4.474;2023-04-09T09:50:38;18.90;99.90
13898;DHT22;7019;50.766;4.474;2023-04-09T09:53:09;19.30;99.90
13898;DHT22;7019;50.766;4.474;2023-04-09T09:55:38;19.60;99.90
13898;DHT22;7019;50.766;4.474;2023-04-09T09:58:15;19.70;99.90
13898;DHT22;7019;50.766;4.474;2023-04-09T10:00:45;20.00;99.90
13898;DHT22;7019;50.766;4.474;2023-04-09T10:03:16;19.60;99.90
13898;DHT22;7019;50.766;4.474;2023-04-09T10:05:47;19.50;99.90
13898;DHT22;7019;50.766;4.474;2023-04-09T10:08:15;19.40;99.90
13898;DHT22;7019;50.766;4.474;2023-04-09T10:10:44;19.20;99.90
13898;DHT22;7019;50.766;4.474;2023-04-09T10:13:17;19.00;99.90
13898;DHT22;7019;50.766;4.474;2023-04-09T10:15:46;18.40;99.90
13898;DHT22;7019;50.766;4.474;2023-04-09T10:18:15;17.00;99.90
13898;DHT22;7019;50.766;4.474;2023-04-09T10:20:49;16.20;99.90
13898;DHT22;7019;50.766;4.474;2023-04-09T10:23:31;15.90;99.90
13898;DHT22;7019;50.766;4.474;2023-04-09T10:26:02;16.50;99.90
13898;DHT22;7019;50.766;4.474;2023-04-09T10:28:31;17.10;99.90
13898;DHT22;7019;50.766;4.474;2023-04-09T10:30:59;17.80;99.90
13898;DHT22;7019;50.766;4.474;2023-04-09T10:33:27;18.30;99.90
13898;DHT22;7019;50.766;4.474;2023-04-09T10:35:58;18.50;99.90
13898;DHT22;7019;50.766;4.474;2023-04-09T10:38:36;18.20;99.90
13898;DHT22;7019;50.766;4.474;2023-04-09T10:41:13;17.80;99.90
13898;DHT22;7019;50.766;4.474;2023-04-09T10:43:42;17.40;99.90
13898;DHT22;7019;50.766;4.474;2023-04-09T10:46:26;17.20;99.90
13898;DHT22;7019;50.766;4.474;2023-04-09T10:49:09;17.20;99.90
13898;DHT22;7019;50.766;4.474;2023-04-09T10:51:38;16.60;99.90
13898;DHT22;7019;50.766;4.474;2023-04-09T10:54:05;16.10;99.90
13898;DHT22;7019;50.766;4.474;2023-04-09T10:57:10;16.30;99.90
13898;DHT22;7019;50.766;4.474;2023-04-09T10:59:41;16.80;99.90
13898;DHT22;7019;50.766;4.474;2023-04-09T11:02:18;17.00;99.90
13898;DHT22;7019;50.766;4.474;2023-04-09T11:04:59;17.00;99.90
13898;DHT22;7019;50.766;4.474;2023-04-09T11:07:32;17.40;99.90
13898;DHT22;7019;50.766;4.474;2023-04-09T11:10:01;17.80;99.90
13898;DHT22;7019;50.766;4.474;2023-04-09T11:12:28;17.80;99.90
13898;DHT22;7019;50.766;4.474;2023-04-09T11:14:56;17.60;99.90
13898;DHT22;7019;50.766;4.474;2023-04-09T11:17:23;18.40;99.90
13898;DHT22;7019;50.766;4.474;2023-04-09T11:19:51;18.90;99.90
13898;DHT22;7019;50.766;4.474;2023-04-09T11:22:18;19.10;99.90
13898;DHT22;7019;50.766;4.474;2023-04-09T11:24:45;18.30;99.90
13898;DHT22;7019;50.766;4.474;2023-04-09T11:27:13;18.30;99.90
13898;DHT22;7019;50.766;4.474;2023-04-09T11:29:44;18.70;99.90
13898;DHT22;7019;50.766;4.474;2023-04-09T11:32:13;19.10;99.90
13898;DHT22;7019;50.766;4.474;2023-04-09T11:34:40;19.40;99.90
13898;DHT22;7019;50.766;4.474;2023-04-09T11:37:13;19.90;99.90
13898;DHT22;7019;50.766;4.474;2023-04-09T11:39:43;20.10;99.90
13898;DHT22;7019;50.766;4.474;2023-04-09T11:42:13;19.30;99.90
13898;DHT22;7019;50.766;4.474;2023-04-09T11:44:40;19.10;99.90
13898;DHT22;7019;50.766;4.474;2023-04-09T11:47:07;19.00;99.90
13898;DHT22;7019;50.766;4.474;2023-04-09T11:49:36;19.00;99.90
13898;DHT22;7019;50.766;4.474;2023-04-09T11:52:03;18.30;99.90
13898;DHT22;7019;50.766;4.474;2023-04-09T11:54:31;17.80;99.90
13898;DHT22;7019;50.766;4.474;2023-04-09T11:56:58;17.30;99.90
13898;DHT22;7019;50.766;4.474;2023-04-09T11:59:29;17.10;99.90
13898;DHT22;7019;50.766;4.474;2023-04-09T12:01:57;17.50;99.90
13898;DHT22;7019;50.766;4.474;2023-04-09T12:04:24;17.80;99.90
13898;DHT22;7019;50.766;4.474;2023-04-09T12:06:55;18.10;99.90
13898;DHT22;7019;50.766;4.474;2023-04-09T12:09:23;18.10;99.90
13898;DHT22;7019;50.766;4.474;2023-04-09T12:11:50;18.40;99.90
13898;DHT22;7019;50.766;4.474;2023-04-09T12:14:18;19.00;99.90
13898;DHT22;7019;50.766;4.474;2023-04-09T12:16:50;18.50;99.90
13898;DHT22;7019;50.766;4.474;2023-04-09T12:19:17;18.00;99.90
13898;DHT22;7019;50.766;4.474;2023-04-09T12:21:46;17.90;99.90
13898;DHT22;7019;50.766;4.474;2023-04-09T12:24:16;18.00;99.90
13898;DHT22;7019;50.766;4.474;2023-04-09T12:26:44;18.10;99.90
13898;DHT22;7019;50.766;4.474;2023-04-09T12:29:11;17.70;99.90
13898;DHT22;7019;50.766;4.474;2023-04-09T12:31:38;17.70;99.90
13898;DHT22;7019;50.766;4.474;2023-04-09T12:34:06;17.50;99.90
13898;DHT22;7019;50.766;4.474;2023-04-09T12:36:33;17.60;99.90
13898;DHT22;7019;50.766;4.474;2023-04-09T12:39:00;18.40;99.90
13898;DHT22;7019;50.766;4.474;2023-04-09T12:41:29;18.90;99.80
13898;DHT22;7019;50.766;4.474;2023-04-09T12:43:56;18.20;99.90
13898;DHT22;7019;50.766;4.474;2023-04-09T12:46:23;18.10;99.90
13898;DHT22;7019;50.766;4.474;2023-04-09T12:48:51;18.10;99.90
13898;DHT22;7019;50.766;4.474;2023-04-09T12:51:18;17.60;99.90
13898;DHT22;7019;50.766;4.474;2023-04-09T12:53:46;17.40;99.90
13898;DHT22;7019;50.766;4.474;2023-04-09T12:56:13;17.50;99.90
13898;DHT22;7019;50.766;4.474;2023-04-09T12:58:41;17.90;99.90
13898;DHT22;7019;50.766;4.474;2023-04-09T13:01:08;17.70;99.90
13898;DHT22;7019;50.766;4.474;2023-04-09T13:03:35;17.70;99.90
13898;DHT22;7019;50.766;4.474;2023-04-09T13:06:02;18.30;99.90
13898;DHT22;7019;50.766;4.474;2023-04-09T13:08:30;18.60;99.80
13898;DHT22;7019;50.766;4.474;2023-04-09T13:10:56;18.90;99.90
13898;DHT22;7019;50.766;4.474;2023-04-09T13:13:23;18.60;98.40
13898;DHT22;7019;50.766;4.474;2023-04-09T13:15:52;18.50;98.80
13898;DHT22;7019;50.766;4.474;2023-04-09T13:18:19;18.80;99.90
13898;DHT22;7019;50.766;4.474;2023-04-09T13:20:46;18.90;97.20
13898;DHT22;7019;50.766;4.474;2023-04-09T13:23:13;18.80;96.70
13898;DHT22;7019;50.766;4.474;2023-04-09T13:25:40;18.60;97.50
13898;DHT22;7019;50.766;4.474;2023-04-09T13:28:07;18.60;98.60
13898;DHT22;7019;50.766;4.474;2023-04-09T13:30:34;19.40;98.50
13898;DHT22;7019;50.766;4.474;2023-04-09T13:33:03;19.60;97.80
13898;DHT22;7019;50.766;4.474;2023-04-09T13:35:30;19.40;97.80
13898;DHT22;7019;50.766;4.474;2023-04-09T13:37:57;19.90;99.90
13898;DHT22;7019;50.766;4.474;2023-04-09T13:40:24;20.30;99.60
13898;DHT22;7019;50.766;4.474;2023-04-09T13:42:51;20.20;97.00
13898;DHT22;7019;50.766;4.474;2023-04-09T13:45:18;20.20;97.70
13898;DHT22;7019;50.766;4.474;2023-04-09T13:47:48;20.40;99.20
13898;DHT22;7019;50.766;4.474;2023-04-09T13:50:17;20.50;98.80
13898;DHT22;7019;50.766;4.474;2023-04-09T13:52:44;20.30;99.00
13898;DHT22;7019;50.766;4.474;2023-04-09T13:55:11;20.10;99.30
13898;DHT22;7019;50.766;4.474;2023-04-09T13:57:38;19.80;99.10
13898;DHT22;7019;50.766;4.474;2023-04-09T14:00:06;19.40;99.00
13898;DHT22;7019;50.766;4.474;2023-04-09T14:02:33;19.20;99.90
13898;DHT22;7019;50.766;4.474;2023-04-09T14:05:01;18.60;97.90
13898;DHT22;7019;50.766;4.474;2023-04-09T14:07:29;18.80;99.90
13898;DHT22;7019;50.766;4.474;2023-04-09T14:09:57;19.30;97.90
13898;DHT22;7019;50.766;4.474;2023-04-09T14:12:24;19.00;97.50
13898;DHT22;7019;50.766;4.474;2023-04-09T14:14:51;19.30;98.10
13898;DHT22;7019;50.766;4.474;2023-04-09T14:17:18;19.20;98.30
13898;DHT22;7019;50.766;4.474;2023-04-09T14:19:45;19.60;99.30
13898;DHT22;7019;50.766;4.474;2023-04-09T14:22:12;19.50;98.00
13898;DHT22;7019;50.766;4.474;2023-04-09T14:24:41;19.70;97.40
13898;DHT22;7019;50.766;4.474;2023-04-09T14:27:08;19.90;97.90
13898;DHT22;7019;50.766;4.474;2023-04-09T14:29:35;20.10;98.30
13898;DHT22;7019;50.766;4.474;2023-04-09T14:32:02;20.20;96.30
13898;DHT22;7019;50.766;4.474;2023-04-09T14:34:29;19.50;97.40
13898;DHT22;7019;50.766;4.474;2023-04-09T14:36:56;19.50;98.30
13898;DHT22;7019;50.766;4.474;2023-04-09T14:39:24;19.20;97.20
13898;DHT22;7019;50.766;4.474;2023-04-09T14:41:52;18.50;97.80
13898;DHT22;7019;50.766;4.474;2023-04-09T14:44:21;18.10;98.40
13898;DHT22;7019;50.766;4.474;2023-04-09T14:46:50;18.40;98.50
13898;DHT22;7019;50.766;4.474;2023-04-09T14:49:19;18.50;98.80
13898;DHT22;7019;50.766;4.474;2023-04-09T14:51:46;18.30;98.10
13898;DHT22;7019;50.766;4.474;2023-04-09T14:54:13;18.00;97.70
13898;DHT22;7019;50.766;4.474;2023-04-09T14:56:41;18.00;98.50
13898;DHT22;7019;50.766;4.474;2023-04-09T14:59:09;17.90;98.00
13898;DHT22;7019;50.766;4.474;2023-04-09T15:01:36;17.60;99.00
13898;DHT22;7019;50.766;4.474;2023-04-09T15:04:04;17.30;99.10
13898;DHT22;7019;50.766;4.474;2023-04-09T15:06:31;17.30;99.10
13898;DHT22;7019;50.766;4.474;2023-04-09T15:08:58;17.30;99.00
13898;DHT22;7019;50.766;4.474;2023-04-09T15:11:25;17.40;98.60
13898;DHT22;7019;50.766;4.474;2023-04-09T15:13:53;17.50;98.80
13898;DHT22;7019;50.766;4.474;2023-04-09T15:16:22;17.60;98.70
13898;DHT22;7019;50.766;4.474;2023-04-09T15:18:50;17.70;99.10
13898;DHT22;7019;50.766;4.474;2023-04-09T15:21:20;17.70;99.00
13898;DHT22;7019;50.766;4.474;2023-04-09T15:23:49;17.80;99.00
13898;DHT22;7019;50.766;4.474;2023-04-09T15:26:16;18.10;99.00
13898;DHT22;7019;50.766;4.474;2023-04-09T15:28:46;18.10;98.50
13898;DHT22;7019;50.766;4.474;2023-04-09T15:31:13;18.00;99.00
13898;DHT22;7019;50.766;4.474;2023-04-09T15:33:42;17.90;99.20
13898;DHT22;7019;50.766;4.474;2023-04-09T15:36:10;17.60;98.40
13898;DHT22;7019;50.766;4.474;2023-04-09T15:38:37;17.60;98.70
13898;DHT22;7019;50.766;4.474;2023-04-09T15:41:04;17.70;98.90
13898;DHT22;7019;50.766;4.474;2023-04-09T15:43:31;17.50;98.40
13898;DHT22;7019;50.766;4.474;2023-04-09T15:45:58;17.50;98.80
13898;DHT22;7019;50.766;4.474;2023-04-09T15:48:25;17.60;98.70
13898;DHT22;7019;50.766;4.474;2023-04-09T15:50:54;17.60;98.20
13898;DHT22;7019;50.766;4.474;2023-04-09T15:53:21;17.80;97.60
13898;DHT22;7019;50.766;4.474;2023-04-09T15:55:51;17.70;98.20
13898;DHT22;7019;50.766;4.474;2023-04-09T15:58:18;17.60;98.70